Time;durP1;ratioP1;P1;durP2;ratioP2;P2;SDS_P1;SDS_P2;PMS_P1;PMS_P2;Temp;Humidity;BMP_temperature;BMP_pressure;BME280_temperature;BME280_humidity;BME280_pressure;Samples;Min_cycle;Max_cycle;Signal;HPM_P1;HPM_P2
2022/07/12 00:01:06;;;;;;;2.45;0.77;;;24.70;73.10;;;;;;4867600;29;20539;-87
2022/07/12 00:03:32;;;;;;;9.23;0.80;;;24.60;73.40;;;;;;4853962;29;20113;-87
2022/07/12 00:05:58;;;;;;;2.15;0.80;;;24.60;73.20;;;;;;4857186;29;20045;-87
2022/07/12 00:08:24;;;;;;;3.05;0.73;;;24.60;73.70;;;;;;4859019;29;20033;-87
2022/07/12 00:10:52;;;;;;;3.25;0.70;;;24.50;73.60;;;;;;4853592;29;20513;-87
2022/07/12 00:13:18;;;;;;;7.57;0.73;;;24.50;74.40;;;;;;4853769;29;20033;-87
2022/07/12 00:15:44;;;;;;;3.83;0.60;;;24.50;74.30;;;;;;4849963;29;20018;-87
2022/07/12 00:18:10;;;;;;;5.47;0.98;;;24.50;74.40;;;;;;4854088;29;20030;-87
2022/07/12 00:20:37;;;;;;;3.25;0.77;;;24.40;74.30;;;;;;4851959;29;20471;-88
2022/07/12 00:23:03;;;;;;;3.00;0.85;;;24.40;74.60;;;;;;4854749;29;20041;-87
2022/07/12 00:25:29;;;;;;;5.38;0.88;;;24.40;74.70;;;;;;4855664;29;20514;-87
2022/07/12 00:27:55;;;;;;;7.93;0.90;;;24.40;74.60;;;;;;4855662;29;20116;-88
2022/07/12 00:30:22;;;;;;;4.22;1.20;;;24.30;74.80;;;;;;4857492;29;20100;-87
2022/07/12 00:32:48;;;;;;;11.35;1.58;;;24.30;75.00;;;;;;4857581;29;20291;-87
2022/07/12 00:35:14;;;;;;;6.25;0.90;;;24.30;75.30;;;;;;4849257;29;20053;-87
2022/07/12 00:37:40;;;;;;;10.13;1.40;;;24.20;75.20;;;;;;4847482;29;20108;-87
2022/07/12 00:40:08;;;;;;;6.72;0.90;;;24.20;75.40;;;;;;4850986;29;20455;-87
2022/07/12 00:42:35;;;;;;;6.90;1.05;;;24.20;75.60;;;;;;4852875;29;20392;-87
2022/07/12 00:45:03;;;;;;;3.45;0.73;;;24.20;75.60;;;;;;4850847;29;20025;-88
2022/07/12 00:47:39;;;;;;;7.50;1.10;;;24.10;76.00;;;;;;4855032;29;20124;-87
2022/07/12 00:50:11;;;;;;;4.03;0.75;;;24.10;75.80;;;;;;4854363;29;20082;-87
2022/07/12 00:52:37;;;;;;;4.43;1.00;;;24.10;76.10;;;;;;4856481;29;20037;-87
2022/07/12 00:55:04;;;;;;;1.30;0.80;;;24.00;76.00;;;;;;4856001;29;20448;-88
2022/07/12 00:57:32;;;;;;;5.25;0.80;;;24.00;76.60;;;;;;4857578;29;20495;-87
2022/07/12 00:59:57;;;;;;;6.78;1.05;;;23.90;76.70;;;;;;4853866;29;20022;-87
2022/07/12 01:02:23;;;;;;;1.92;0.88;;;23.90;76.70;;;;;;4846849;29;20532;-87
2022/07/12 01:04:51;;;;;;;4.93;0.80;;;23.80;76.90;;;;;;4849783;29;20026;-87
2022/07/12 01:07:17;;;;;;;2.42;0.90;;;23.70;77.10;;;;;;4856207;29;20054;-87
2022/07/12 01:09:43;;;;;;;6.32;0.82;;;23.70;77.40;;;;;;4857919;29;20030;-87
2022/07/12 01:12:10;;;;;;;3.58;1.13;;;23.70;77.30;;;;;;4849558;29;20021;-87
2022/07/12 01:14:37;;;;;;;1.95;0.85;;;23.70;77.80;;;;;;4850128;29;20025;-87
2022/07/12 01:17:03;;;;;;;3.50;0.90;;;23.60;77.90;;;;;;4852194;29;20034;-87
2022/07/12 01:19:29;;;;;;;3.88;0.80;;;23.60;78.00;;;;;;4850569;29;20116;-87
2022/07/12 01:21:57;;;;;;;3.47;0.70;;;23.50;78.10;;;;;;4854353;29;20180;-88
2022/07/12 01:24:23;;;;;;;2.42;0.90;;;23.50;78.10;;;;;;4842871;29;20030;-87
2022/07/12 01:26:51;;;;;;;4.22;0.98;;;23.50;78.40;;;;;;4855700;29;20068;-87
2022/07/12 01:29:16;;;;;;;1.98;0.65;;;23.40;78.60;;;;;;4854643;29;20610;-87
2022/07/12 01:31:43;;;;;;;1.88;0.95;;;23.40;78.90;;;;;;4856334;29;20029;-87
2022/07/12 01:34:09;;;;;;;4.75;1.00;;;23.30;79.00;;;;;;4857142;29;20742;-87
2022/07/12 01:36:36;;;;;;;2.53;0.80;;;23.30;79.10;;;;;;4851615;29;20059;-88
2022/07/12 01:39:04;;;;;;;3.72;0.70;;;23.20;79.10;;;;;;4850832;29;20043;-87
2022/07/12 01:41:31;;;;;;;1.63;0.90;;;23.30;79.50;;;;;;4848307;29;20026;-87
2022/07/12 01:43:57;;;;;;;3.97;1.30;;;23.20;79.50;;;;;;4853634;29;20088;-88
2022/07/12 01:46:22;;;;;;;2.95;0.70;;;23.20;79.70;;;;;;4838242;29;20507;-87
2022/07/12 01:48:48;;;;;;;2.20;0.65;;;23.10;80.00;;;;;;4868623;29;20023;-87
2022/07/12 01:51:14;;;;;;;4.55;0.93;;;23.10;80.10;;;;;;4867177;29;20030;-88
2022/07/12 01:53:39;;;;;;;3.75;1.00;;;23.10;80.20;;;;;;4855844;29;20248;-88
2022/07/12 01:56:05;;;;;;;2.85;0.50;;;23.10;80.60;;;;;;4855796;29;20085;-88
2022/07/12 01:58:32;;;;;;;1.65;0.80;;;23.00;80.80;;;;;;4856911;29;20025;-87
2022/07/12 02:00:58;;;;;;;1.85;0.80;;;23.00;80.80;;;;;;4851145;29;20562;-87
2022/07/12 02:03:24;;;;;;;4.35;0.90;;;22.90;81.20;;;;;;4839190;29;20033;-87
2022/07/12 02:05:49;;;;;;;1.60;0.90;;;22.90;81.40;;;;;;4855168;29;20054;-87
2022/07/12 02:08:16;;;;;;;0.98;0.60;;;22.90;81.30;;;;;;4856651;29;20376;-87
2022/07/12 02:10:44;;;;;;;1.77;0.90;;;22.90;81.60;;;;;;4852468;29;20041;-87
2022/07/12 02:13:10;;;;;;;6.50;1.30;;;22.80;81.40;;;;;;4848750;29;20033;-87
2022/07/12 02:15:36;;;;;;;2.38;0.80;;;22.80;81.40;;;;;;4848859;29;20030;-87
2022/07/12 02:18:02;;;;;;;5.63;0.80;;;22.80;81.80;;;;;;4851197;29;20021;-87
2022/07/12 02:20:28;;;;;;;2.75;0.90;;;22.90;81.90;;;;;;4852419;29;20064;-87
2022/07/12 02:22:54;;;;;;;1.80;0.75;;;22.80;81.90;;;;;;4851791;29;20018;-87
2022/07/12 02:25:19;;;;;;;2.22;0.90;;;22.80;82.00;;;;;;4854353;29;20042;-87
2022/07/12 02:27:45;;;;;;;2.05;0.93;;;22.70;82.40;;;;;;4852758;29;20502;-87
2022/07/12 02:30:11;;;;;;;2.15;0.70;;;22.70;82.60;;;;;;4855624;29;20058;-87
2022/07/12 02:32:38;;;;;;;2.15;0.88;;;22.70;82.70;;;;;;4855264;29;20098;-87
2022/07/12 02:35:07;;;;;;;1.25;0.80;;;22.70;82.80;;;;;;4856984;29;20029;-87
2022/07/12 02:37:33;;;;;;;0.80;0.50;;;22.70;83.00;;;;;;4849449;29;20036;-87
2022/07/12 02:42:43;;;;;;;1.38;0.88;;;22.60;83.30;;;;;;4850208;29;20032;-87
2022/07/12 02:45:10;;;;;;;1.52;0.70;;;22.60;83.60;;;;;;4853321;29;20038;-87
2022/07/12 02:47:42;;;;;;;2.17;0.90;;;22.50;83.50;;;;;;4856669;29;20022;-87
2022/07/12 02:50:07;;;;;;;1.55;0.65;;;22.50;84.00;;;;;;4846678;29;20037;-88
2022/07/12 02:52:34;;;;;;;2.42;0.90;;;22.50;84.30;;;;;;4858893;29;20030;-88
2022/07/12 02:55:00;;;;;;;2.00;0.88;;;22.40;84.40;;;;;;4857749;29;20404;-88
2022/07/12 02:57:25;;;;;;;3.88;1.25;;;22.40;84.50;;;;;;4859763;29;20041;-87
2022/07/12 02:59:51;;;;;;;5.05;0.70;;;22.30;84.60;;;;;;4856772;29;20090;-87
2022/07/12 03:02:17;;;;;;;7.00;0.95;;;22.30;84.90;;;;;;4847912;29;20030;-87
2022/07/12 03:04:43;;;;;;;1.77;0.90;;;22.20;85.00;;;;;;4851046;29;20043;-87
2022/07/12 03:07:08;;;;;;;3.88;1.00;;;22.20;85.70;;;;;;4846679;29;20223;-87
2022/07/12 03:09:35;;;;;;;1.38;0.80;;;22.10;85.60;;;;;;4858441;29;20029;-87
2022/07/12 03:12:00;;;;;;;6.82;1.20;;;22.10;85.60;;;;;;4845198;29;20087;-87
2022/07/12 03:14:26;;;;;;;2.25;0.80;;;22.10;86.00;;;;;;4850607;29;20030;-87
2022/07/12 03:16:52;;;;;;;2.80;0.95;;;22.10;85.90;;;;;;4852785;29;20032;-86
2022/07/12 03:19:17;;;;;;;4.18;0.95;;;22.10;86.20;;;;;;4850204;29;20034;-87
2022/07/12 03:21:43;;;;;;;4.30;1.00;;;22.10;86.40;;;;;;4856109;29;20034;-87
2022/07/12 03:24:10;;;;;;;2.10;1.00;;;22.10;86.30;;;;;;4853912;29;20022;-88
2022/07/12 03:26:35;;;;;;;6.03;1.20;;;22.00;86.80;;;;;;4857371;29;20502;-87
2022/07/12 03:29:01;;;;;;;1.30;0.90;;;21.90;86.60;;;;;;4856866;29;20022;-87
2022/07/12 03:31:27;;;;;;;1.67;1.10;;;21.90;87.00;;;;;;4858930;29;20120;-87
2022/07/12 03:33:53;;;;;;;1.88;1.00;;;21.90;87.30;;;;;;4859310;29;20025;-87
2022/07/12 03:36:19;;;;;;;3.03;1.20;;;21.90;87.40;;;;;;4855067;29;20086;-87
2022/07/12 03:38:44;;;;;;;3.25;1.05;;;21.90;87.60;;;;;;4853260;29;20025;-87
2022/07/12 03:41:10;;;;;;;2.15;0.90;;;21.90;87.70;;;;;;4851073;29;20086;-87
2022/07/12 03:43:36;;;;;;;4.28;1.00;;;21.80;88.00;;;;;;4852647;29;20026;-87
2022/07/12 03:46:01;;;;;;;3.15;1.00;;;21.80;88.40;;;;;;4854193;29;20041;-87
2022/07/12 03:48:27;;;;;;;3.28;1.27;;;21.80;88.50;;;;;;4854653;29;20479;-87
2022/07/12 03:50:53;;;;;;;3.08;1.27;;;21.80;88.40;;;;;;4857458;29;20025;-87
2022/07/12 03:53:19;;;;;;;1.55;0.93;;;21.80;88.60;;;;;;4855814;29;20050;-87
2022/07/12 03:55:44;;;;;;;1.63;0.90;;;21.70;88.90;;;;;;4857869;29;20120;-87
2022/07/12 03:58:10;;;;;;;3.50;0.90;;;21.70;89.00;;;;;;4858249;29;20173;-87
2022/07/12 04:00:36;;;;;;;1.95;0.95;;;21.70;89.10;;;;;;4850836;29;20037;-87
2022/07/12 04:03:02;;;;;;;1.92;1.00;;;21.60;89.20;;;;;;4841403;29;20033;-87
2022/07/12 04:05:27;;;;;;;2.97;1.40;;;21.60;89.30;;;;;;4853570;29;20469;-87
2022/07/12 04:07:54;;;;;;;5.43;1.10;;;21.60;89.60;;;;;;4858432;29;20048;-86
2022/07/12 04:10:20;;;;;;;2.97;0.98;;;21.60;90.10;;;;;;4857343;29;20108;-86
2022/07/12 04:12:46;;;;;;;3.42;1.13;;;21.60;90.10;;;;;;4856853;29;20562;-87
2022/07/12 04:15:12;;;;;;;3.85;1.00;;;21.50;90.20;;;;;;4853694;29;20567;-87
2022/07/12 04:17:38;;;;;;;3.75;1.00;;;21.50;90.20;;;;;;4849699;29;20030;-87
2022/07/12 04:20:06;;;;;;;2.72;1.10;;;21.50;90.40;;;;;;4854702;29;20030;-87
2022/07/12 04:22:31;;;;;;;1.98;1.00;;;21.50;90.50;;;;;;4849973;29;20018;-86
2022/07/12 04:24:57;;;;;;;5.75;1.23;;;21.40;90.60;;;;;;4856212;29;20465;-87
2022/07/12 04:27:23;;;;;;;3.22;0.95;;;21.40;90.60;;;;;;4855163;29;20470;-87
2022/07/12 04:29:48;;;;;;;2.92;0.93;;;21.40;90.80;;;;;;4857469;29;20270;-87
2022/07/12 04:32:14;;;;;;;2.35;1.00;;;21.40;90.90;;;;;;4857692;29;20085;-86
2022/07/12 04:34:40;;;;;;;5.05;1.30;;;21.30;90.90;;;;;;4850673;29;20034;-86
2022/07/12 04:37:05;;;;;;;1.65;0.95;;;21.30;91.00;;;;;;4840450;29;20116;-87
2022/07/12 04:39:31;;;;;;;2.90;0.90;;;21.30;91.10;;;;;;4845366;29;20026;-87
2022/07/12 04:41:56;;;;;;;1.73;0.90;;;21.30;91.10;;;;;;4849607;29;20022;-86
2022/07/12 04:44:22;;;;;;;1.33;0.75;;;21.30;91.10;;;;;;4842685;29;20037;-87
2022/07/12 04:46:48;;;;;;;4.45;1.02;;;21.40;91.20;;;;;;4840554;29;20507;-90
2022/07/12 04:49:14;;;;;;;3.25;1.10;;;21.40;91.30;;;;;;4849295;29;20032;-89
2022/07/12 04:51:39;;;;;;;6.10;1.30;;;21.40;91.30;;;;;;4852420;29;20033;-89
2022/07/12 04:54:05;;;;;;;6.72;1.25;;;21.40;91.30;;;;;;4855606;29;20516;-89
2022/07/12 04:56:31;;;;;;;4.38;1.08;;;21.50;91.30;;;;;;4853972;29;20034;-89
2022/07/12 04:58:56;;;;;;;4.78;0.93;;;21.40;91.30;;;;;;4856868;29;20060;-89
2022/07/12 05:01:22;;;;;;;2.45;0.90;;;21.40;91.70;;;;;;4856605;29;20026;-89
2022/07/12 05:03:48;;;;;;;3.65;0.98;;;21.50;91.50;;;;;;4843803;29;20112;-88
2022/07/12 05:06:13;;;;;;;4.22;1.70;;;21.60;91.50;;;;;;4853781;29;20280;-88
2022/07/12 05:08:39;;;;;;;3.58;1.10;;;21.60;91.50;;;;;;4849019;29;20026;-88
2022/07/12 05:11:05;;;;;;;2.30;1.15;;;21.60;91.50;;;;;;4841021;29;20030;-88
2022/07/12 05:13:30;;;;;;;5.70;1.38;;;21.60;91.60;;;;;;4842088;29;20564;-89
2022/07/12 05:15:56;;;;;;;3.33;1.17;;;21.60;91.60;;;;;;4851616;29;20026;-89
2022/07/12 05:18:22;;;;;;;5.22;1.30;;;21.70;91.50;;;;;;4840294;29;20026;-89
2022/07/12 05:20:48;;;;;;;1.30;0.90;;;21.60;91.40;;;;;;4839701;29;20022;-89
2022/07/12 05:23:13;;;;;;;5.88;1.00;;;21.60;91.60;;;;;;4841882;29;20029;-89
2022/07/12 05:25:39;;;;;;;5.63;1.33;;;21.70;91.50;;;;;;4849625;29;20053;-89
2022/07/12 05:28:05;;;;;;;4.95;0.90;;;21.80;91.60;;;;;;4861717;29;20033;-88
2022/07/12 05:30:31;;;;;;;4.93;1.10;;;21.80;91.60;;;;;;4859973;29;20113;-88
2022/07/12 05:32:57;;;;;;;2.35;0.90;;;21.80;91.80;;;;;;4844717;29;20029;-87
2022/07/12 05:35:22;;;;;;;4.35;0.93;;;21.90;91.80;;;;;;4859109;29;20030;-88
2022/07/12 05:37:48;;;;;;;5.13;1.00;;;21.90;91.80;;;;;;4861310;29;20027;-88
2022/07/12 05:40:14;;;;;;;4.97;1.13;;;22.10;91.70;;;;;;4863476;29;20056;-88
2022/07/12 05:42:39;;;;;;;2.75;1.00;;;22.10;91.70;;;;;;4862419;29;20029;-88
2022/07/12 05:45:06;;;;;;;6.25;1.42;;;22.10;91.80;;;;;;4865938;29;20033;-88
2022/07/12 05:47:32;;;;;;;4.82;1.15;;;22.20;91.70;;;;;;4879982;29;20206;-89
2022/07/12 05:49:58;;;;;;;3.90;1.02;;;22.20;91.60;;;;;;4868172;29;20030;-88
2022/07/12 05:55:07;;;;;;;2.58;1.00;;;22.30;91.70;;;;;;4862017;29;20024;-89
2022/07/12 05:57:33;;;;;;;5.47;1.20;;;22.30;91.80;;;;;;4860494;29;20026;-88
2022/07/12 05:59:59;;;;;;;5.78;1.20;;;22.30;91.70;;;;;;4862265;29;20025;-88
2022/07/12 06:02:24;;;;;;;7.30;1.23;;;22.40;91.70;;;;;;4858566;29;20313;-88
2022/07/12 06:04:50;;;;;;;6.30;1.00;;;22.50;91.40;;;;;;4857540;29;20372;-88
2022/07/12 06:07:16;;;;;;;5.30;1.10;;;22.50;91.60;;;;;;4852125;29;20077;-88
2022/07/12 06:09:42;;;;;;;5.18;1.27;;;22.60;91.50;;;;;;4847284;29;20132;-88
2022/07/12 06:12:08;;;;;;;6.03;1.10;;;22.60;91.40;;;;;;4847623;29;20041;-88
2022/07/12 06:14:33;;;;;;;2.70;0.90;;;22.50;91.40;;;;;;4848366;29;20030;-88
2022/07/12 06:16:59;;;;;;;6.05;1.15;;;22.60;91.50;;;;;;4849350;29;20395;-88
2022/07/12 06:19:26;;;;;;;2.78;1.10;;;22.70;91.40;;;;;;4847187;29;20030;-88
2022/07/12 06:21:52;;;;;;;6.95;1.10;;;22.80;91.50;;;;;;4842647;29;20480;-88
2022/07/12 06:24:17;;;;;;;4.55;1.23;;;22.80;91.60;;;;;;4849275;29;20029;-88
2022/07/12 06:26:43;;;;;;;2.22;1.00;;;22.90;91.30;;;;;;4853437;29;20030;-87
2022/07/12 06:29:09;;;;;;;4.18;1.20;;;23.00;91.40;;;;;;4852484;29;20029;-87
2022/07/12 06:31:34;;;;;;;5.25;1.17;;;23.00;90.90;;;;;;4854846;29;20109;-88
2022/07/12 06:34:00;;;;;;;5.85;1.05;;;23.20;90.80;;;;;;4855110;29;20029;-88
2022/07/12 06:36:26;;;;;;;2.05;1.00;;;23.20;90.90;;;;;;4865581;29;20030;-88
2022/07/12 06:38:51;;;;;;;3.85;1.40;;;23.30;90.60;;;;;;4850821;29;20034;-88
2022/07/12 06:41:17;;;;;;;4.78;0.93;;;23.40;90.60;;;;;;4847851;29;20022;-88
2022/07/12 06:43:43;;;;;;;3.42;1.25;;;23.50;90.40;;;;;;4852296;29;20040;-88
2022/07/12 06:46:08;;;;;;;3.55;1.08;;;23.50;90.50;;;;;;4838823;29;20125;-88
2022/07/12 06:48:34;;;;;;;3.90;1.13;;;23.50;90.40;;;;;;4848217;29;20479;-88
2022/07/12 06:51:00;;;;;;;5.85;1.20;;;23.60;90.90;;;;;;4847758;29;20041;-87
2022/07/12 06:53:26;;;;;;;3.20;1.02;;;23.60;90.80;;;;;;4852396;29;20029;-88
2022/07/12 06:55:51;;;;;;;3.22;1.20;;;23.80;90.80;;;;;;4855727;29;20049;-88
2022/07/12 06:58:17;;;;;;;4.75;1.15;;;23.90;90.50;;;;;;4856179;29;20060;-89
2022/07/12 07:00:43;;;;;;;4.20;1.30;;;24.00;90.10;;;;;;4847165;29;20029;-88
2022/07/12 07:03:08;;;;;;;4.93;1.25;;;24.10;90.10;;;;;;4837994;29;20066;-88
2022/07/12 07:05:36;;;;;;;4.43;1.10;;;24.20;89.40;;;;;;4851089;29;20053;-88
2022/07/12 07:08:03;;;;;;;2.55;0.80;;;24.30;89.10;;;;;;4854716;29;20037;-88
2022/07/12 07:10:29;;;;;;;5.22;1.30;;;24.40;88.80;;;;;;4853669;29;20546;-88
2022/07/12 07:12:56;;;;;;;4.30;1.15;;;24.50;88.20;;;;;;4839909;29;20054;-88
2022/07/12 07:15:22;;;;;;;10.73;1.17;;;24.50;87.90;;;;;;4850217;29;20387;-88
2022/07/12 07:17:47;;;;;;;4.03;1.10;;;24.60;87.90;;;;;;4848470;29;20428;-88
2022/07/12 07:20:13;;;;;;;7.05;1.10;;;24.80;87.30;;;;;;4851738;29;20022;-88
2022/07/12 07:22:39;;;;;;;5.90;1.13;;;24.80;87.00;;;;;;4848452;29;20114;-88
2022/07/12 07:25:06;;;;;;;7.50;1.10;;;25.00;86.90;;;;;;4860231;29;20028;-88
2022/07/12 07:27:32;;;;;;;4.38;1.00;;;25.00;85.50;;;;;;4852444;29;20045;-88
2022/07/12 07:32:42;;;;;;;3.03;1.05;;;25.30;85.10;;;;;;4858468;29;20036;-87
2022/07/12 07:35:08;;;;;;;4.22;1.00;;;25.40;84.50;;;;;;4859726;29;20483;-87
2022/07/12 07:37:34;;;;;;;4.28;1.10;;;25.50;84.10;;;;;;4852137;29;20026;-88
2022/07/12 07:40:00;;;;;;;7.70;1.40;;;25.60;84.00;;;;;;4851240;29;20026;-88
2022/07/12 07:42:26;;;;;;;3.80;1.13;;;25.60;83.60;;;;;;4855113;29;20036;-88
2022/07/12 07:44:51;;;;;;;3.92;1.00;;;25.70;82.50;;;;;;4843226;29;20054;-88
2022/07/12 07:47:17;;;;;;;5.75;1.20;;;25.80;83.10;;;;;;4856232;29;20619;-88
2022/07/12 07:49:43;;;;;;;4.55;1.00;;;25.90;83.20;;;;;;4854041;29;20399;-88
2022/07/12 07:52:08;;;;;;;5.55;1.15;;;26.00;82.40;;;;;;4857547;29;20061;-88
2022/07/12 07:54:34;;;;;;;8.75;1.10;;;26.10;82.60;;;;;;4856368;29;20025;-88
2022/07/12 07:57:00;;;;;;;4.07;1.25;;;26.20;81.10;;;;;;4858738;29;20026;-88
2022/07/12 07:59:26;;;;;;;6.63;1.00;;;26.20;80.90;;;;;;4859536;29;20165;-88
2022/07/12 08:01:54;;;;;;;4.07;1.13;;;26.40;81.00;;;;;;4868371;29;20033;-88
2022/07/12 08:04:21;;;;;;;3.38;0.95;;;26.50;81.10;;;;;;4857938;29;20025;-88
2022/07/12 08:06:48;;;;;;;2.30;0.90;;;26.60;80.40;;;;;;4856121;29;20063;-88
2022/07/12 08:09:14;;;;;;;3.05;1.20;;;26.60;79.40;;;;;;4858659;29;20507;-87
2022/07/12 08:11:40;;;;;;;4.15;0.93;;;26.80;78.80;;;;;;4847973;29;20037;-88
2022/07/12 08:14:07;;;;;;;5.93;1.10;;;26.90;77.80;;;;;;4848253;29;20029;-87
2022/07/12 08:16:34;;;;;;;4.57;1.05;;;27.10;78.00;;;;;;4853367;29;20094;-88
2022/07/12 08:19:00;;;;;;;4.95;0.90;;;27.20;76.50;;;;;;4850364;29;20026;-87
2022/07/12 08:21:26;;;;;;;7.05;1.35;;;27.30;76.00;;;;;;4854316;29;20034;-88
2022/07/12 08:23:53;;;;;;;5.72;0.90;;;27.40;75.10;;;;;;4854938;29;20535;-88
2022/07/12 08:26:19;;;;;;;4.53;1.23;;;27.50;75.10;;;;;;4855269;29;20029;-88
2022/07/12 08:28:45;;;;;;;3.72;1.33;;;27.60;75.60;;;;;;4857216;29;20033;-88
2022/07/12 08:31:14;;;;;;;4.13;1.00;;;27.70;74.90;;;;;;4856638;29;20028;-87
2022/07/12 08:33:41;;;;;;;3.38;0.85;;;27.80;74.10;;;;;;4858125;29;20025;-87
2022/07/12 08:36:08;;;;;;;1.85;0.90;;;27.90;73.10;;;;;;4855150;29;20060;-87
2022/07/12 08:38:37;;;;;;;1.95;0.60;;;28.00;73.40;;;;;;4851369;29;20025;-88
2022/07/12 08:41:06;;;;;;;7.60;0.93;;;28.10;73.10;;;;;;4850076;29;20034;-88
2022/07/12 08:43:35;;;;;;;5.40;0.70;;;28.30;73.60;;;;;;4851858;29;20025;-88
2022/07/12 08:46:09;;;;;;;4.18;0.90;;;28.40;71.70;;;;;;4853696;29;20060;-88
2022/07/12 08:48:35;;;;;;;;;;;28.50;70.80;;;;;;4855059;29;20395;-87
2022/07/12 08:51:05;;;;;;;5.25;0.90;;;28.60;70.60;;;;;;4856395;29;19915;-87
2022/07/12 08:53:32;;;;;;;5.85;0.70;;;28.70;70.20;;;;;;4851899;29;20070;-87
2022/07/12 08:55:58;;;;;;;2.42;0.75;;;28.80;69.40;;;;;;4849876;29;20090;-87
2022/07/12 08:58:24;;;;;;;5.57;0.90;;;28.80;69.50;;;;;;4857192;29;20024;-88
2022/07/12 09:00:50;;;;;;;7.57;0.82;;;28.90;69.10;;;;;;4848449;29;20029;-87
2022/07/12 09:03:16;;;;;;;2.00;0.70;;;29.00;69.70;;;;;;4840990;29;20173;-88
2022/07/12 09:05:52;;;;;;;2.95;0.80;;;29.00;68.20;;;;;;4854729;29;20053;-88
2022/07/12 09:08:19;;;;;;;10.00;0.80;;;29.20;68.90;;;;;;4857718;29;20041;-88
2022/07/12 09:10:50;;;;;;;6.82;1.15;;;29.20;68.30;;;;;;4853282;29;20014;-88
2022/07/12 09:13:20;;;;;;;8.32;0.82;;;29.30;68.10;;;;;;4845656;29;20108;-87
2022/07/12 09:15:50;;;;;;;1.75;0.70;;;29.30;68.10;;;;;;4848521;29;20038;-88
2022/07/12 09:18:17;;;;;;;1.77;1.10;;;29.40;68.50;;;;;;4853433;29;20432;-88
2022/07/12 09:20:51;;;;;;;1.35;0.57;;;29.60;67.40;;;;;;4851239;29;20026;-88
2022/07/12 09:23:17;;;;;;;6.45;1.00;;;29.80;66.10;;;;;;4848231;29;20033;-88
2022/07/12 09:25:47;;;;;;;2.05;0.75;;;29.80;67.00;;;;;;4849917;29;20414;-87
2022/07/12 09:28:13;;;;;;;3.60;0.88;;;29.90;66.90;;;;;;4854439;29;20085;-88
2022/07/12 09:30:48;;;;;;;1.80;0.60;;;30.00;65.50;;;;;;4851032;29;20036;-88
2022/07/12 09:36:06;;;;;;;6.07;0.70;;;30.20;65.00;;;;;;4852238;29;20298;-88
2022/07/12 09:38:48;;;;;;;1.20;0.50;;;30.30;63.80;;;;;;4848494;29;20033;-87
2022/07/12 09:41:17;;;;;;;4.10;0.80;;;30.30;63.60;;;;;;4848874;29;20034;-87
2022/07/12 09:43:43;;;;;;;6.47;0.70;;;30.30;64.80;;;;;;4853011;29;20057;-87
2022/07/12 09:46:10;;;;;;;6.40;0.77;;;30.40;64.60;;;;;;4851531;29;20037;-87
2022/07/12 09:48:37;;;;;;;1.83;0.60;;;30.50;64.80;;;;;;4853988;29;20443;-88
2022/07/12 09:51:04;;;;;;;2.78;0.60;;;30.70;63.70;;;;;;4854242;29;20105;-87
2022/07/12 09:53:33;;;;;;;3.63;0.80;;;30.80;63.30;;;;;;4854773;29;20021;-88
2022/07/12 09:56:05;;;;;;;2.55;0.80;;;30.80;63.00;;;;;;4856351;29;20030;-87
2022/07/12 09:58:38;;;;;;;5.07;0.90;;;30.90;64.30;;;;;;4856875;29;20112;-87
2022/07/12 10:01:06;;;;;;;3.47;0.70;;;31.00;62.90;;;;;;4851498;29;20022;-87
2022/07/12 10:03:34;;;;;;;4.47;0.60;;;31.10;63.00;;;;;;4839669;29;20030;-88
2022/07/12 10:06:02;;;;;;;3.78;0.65;;;31.10;63.20;;;;;;4839539;29;20148;-87
2022/07/12 10:08:29;;;;;;;5.28;0.70;;;31.30;63.30;;;;;;4856666;29;20037;-87
2022/07/12 10:10:56;;;;;;;4.15;0.63;;;31.40;61.90;;;;;;4832777;29;20030;-87
2022/07/12 10:13:22;;;;;;;1.63;0.60;;;31.50;61.70;;;;;;4851956;29;20380;-87
2022/07/12 10:15:50;;;;;;;1.50;0.70;;;31.50;61.80;;;;;;4847578;29;20053;-87
2022/07/12 10:18:20;;;;;;;4.55;0.60;;;31.50;61.20;;;;;;4851203;29;20085;-88
2022/07/12 10:20:57;;;;;;;3.80;0.65;;;31.70;60.70;;;;;;4850051;29;20033;-87
2022/07/12 10:23:27;;;;;;;1.70;0.60;;;31.80;59.80;;;;;;4839453;29;20423;-88
2022/07/12 10:25:53;;;;;;;2.20;0.50;;;31.90;59.60;;;;;;4852041;29;20065;-87
2022/07/12 10:28:19;;;;;;;2.80;0.43;;;32.00;58.10;;;;;;4847389;29;20022;-88
2022/07/12 10:30:49;;;;;;;2.72;0.40;;;32.10;57.80;;;;;;4849484;29;20033;-88
2022/07/12 10:33:19;;;;;;;1.95;0.50;;;32.20;58.50;;;;;;4836424;29;20595;-87
2022/07/12 10:36:02;;;;;;;3.08;0.77;;;32.30;57.00;;;;;;4849829;29;20395;-87
2022/07/12 10:38:28;;;;;;;2.25;0.40;;;32.30;56.00;;;;;;4843439;29;20041;-87
2022/07/12 10:40:54;;;;;;;2.20;0.50;;;32.50;55.70;;;;;;4840445;29;20050;-88
2022/07/12 10:46:23;;;;;;;5.05;0.52;;;32.60;56.40;;;;;;4850900;29;20074;-87
2022/07/12 10:48:49;;;;;;;5.97;0.82;;;32.60;56.90;;;;;;4839090;29;20030;-87
2022/07/12 10:51:19;;;;;;;3.03;0.50;;;32.70;56.70;;;;;;4849406;29;20065;-87
2022/07/12 10:53:48;;;;;;;1.92;0.50;;;32.90;56.70;;;;;;4854130;29;20033;-85
2022/07/12 10:56:27;;;;;;;3.40;0.60;;;32.90;54.90;;;;;;4853823;29;20081;-85
2022/07/12 10:58:59;;;;;;;1.35;0.50;;;33.00;53.90;;;;;;4856597;29;20026;-85
2022/07/12 11:01:32;;;;;;;1.40;0.43;;;33.10;54.00;;;;;;4848943;29;20499;-85
2022/07/12 11:04:09;;;;;;;3.67;0.50;;;33.10;53.00;;;;;;4848978;29;20029;-85
2022/07/12 11:06:37;;;;;;;1.38;0.40;;;33.20;53.80;;;;;;4844740;29;20058;-85
2022/07/12 11:09:07;;;;;;;3.53;0.60;;;33.20;53.90;;;;;;4854162;29;20399;-85
2022/07/12 11:11:45;;;;;;;2.13;0.88;;;33.30;53.80;;;;;;4856546;29;20112;-85
2022/07/12 11:14:12;;;;;;;4.80;1.25;;;33.40;52.90;;;;;;4858197;29;20100;-85
2022/07/12 11:16:45;;;;;;;2.10;0.50;;;33.50;53.40;;;;;;4857647;29;20048;-85
2022/07/12 11:19:11;;;;;;;2.90;0.60;;;33.60;52.70;;;;;;4842482;29;20053;-85
2022/07/12 11:21:36;;;;;;;1.75;0.70;;;33.70;52.90;;;;;;4860028;29;20085;-85
2022/07/12 11:24:02;;;;;;;5.53;0.60;;;33.80;53.20;;;;;;4842417;29;20029;-85
2022/07/12 11:26:32;;;;;;;1.15;0.50;;;33.90;53.00;;;;;;4854300;29;20041;-85
2022/07/12 11:28:58;;;;;;;4.40;1.13;;;34.10;52.20;;;;;;4850057;29;20034;-85
2022/07/12 11:31:25;;;;;;;3.03;0.63;;;34.20;51.50;;;;;;4855594;29;20104;-85
2022/07/12 11:33:51;;;;;;;3.92;0.50;;;34.20;51.60;;;;;;4854124;29;20132;-85
2022/07/12 11:36:18;;;;;;;5.40;0.60;;;34.30;52.20;;;;;;4870477;29;20554;-85
2022/07/12 11:38:45;;;;;;;3.92;0.60;;;34.40;51.90;;;;;;4855868;29;20117;-85
2022/07/12 11:41:13;;;;;;;1.83;0.60;;;34.50;51.00;;;;;;4847229;29;20342;-85
2022/07/12 11:43:39;;;;;;;1.65;0.63;;;34.60;49.90;;;;;;4859866;29;20442;-85
2022/07/12 11:46:07;;;;;;;2.08;0.45;;;34.70;49.10;;;;;;4850014;29;20113;-85
2022/07/12 11:48:32;;;;;;;0.98;0.50;;;34.70;50.40;;;;;;4851961;29;20045;-85
2022/07/12 11:51:03;;;;;;;2.25;0.50;;;34.80;50.10;;;;;;4852893;29;20034;-85
2022/07/12 11:53:30;;;;;;;4.00;0.60;;;34.90;50.00;;;;;;4854658;29;20029;-85
2022/07/12 11:55:58;;;;;;;4.85;0.82;;;35.00;51.10;;;;;;4855131;29;20384;-85
2022/07/12 11:58:25;;;;;;;3.28;0.70;;;35.10;50.30;;;;;;4855557;29;20032;-86
2022/07/12 12:00:52;;;;;;;2.38;0.50;;;35.20;50.40;;;;;;4857384;29;20029;-86
2022/07/12 12:03:19;;;;;;;2.83;0.63;;;35.40;49.40;;;;;;4856634;29;20030;-85
2022/07/12 12:05:49;;;;;;;2.97;0.80;;;35.50;49.90;;;;;;4858469;29;20144;-86
2022/07/12 12:08:16;;;;;;;2.58;0.70;;;35.70;49.80;;;;;;4855019;29;20517;-85
2022/07/12 12:10:51;;;;;;;1.63;0.60;;;35.80;48.40;;;;;;4852515;29;20314;-85
2022/07/12 12:13:18;;;;;;;2.85;0.45;;;36.00;48.40;;;;;;4843271;29;20144;-85
2022/07/12 12:16:00;;;;;;;1.00;0.40;;;36.10;48.00;;;;;;4853948;29;20040;-86
2022/07/12 12:18:34;;;;;;;2.92;0.80;;;36.10;47.30;;;;;;4851976;29;20022;-86
2022/07/12 12:21:02;;;;;;;1.33;0.57;;;36.20;49.40;;;;;;4856023;29;20036;-86
2022/07/12 12:23:28;;;;;;;1.30;0.50;;;36.40;48.70;;;;;;4854016;29;20531;-86
2022/07/12 12:26:19;;;;;;;3.53;0.40;;;36.60;48.30;;;;;;4857327;29;20125;-86
2022/07/12 12:28:46;;;;;;;0.68;0.40;;;36.60;48.10;;;;;;4856684;29;20031;-86
2022/07/12 12:31:14;;;;;;;3.05;0.60;;;36.70;47.30;;;;;;4858737;29;20066;-87
2022/07/12 12:33:40;;;;;;;5.72;0.70;;;36.80;48.40;;;;;;4855527;29;20178;-86
2022/07/12 12:36:20;;;;;;;2.58;0.38;;;36.90;48.50;;;;;;4851004;29;20030;-86
2022/07/12 12:38:47;;;;;;;5.32;0.73;;;36.90;48.20;;;;;;4850177;29;20018;-86
2022/07/12 12:41:13;;;;;;;2.88;0.70;;;37.10;48.50;;;;;;4845110;29;20032;-86
2022/07/12 12:43:40;;;;;;;4.15;0.52;;;37.20;48.60;;;;;;4858596;29;20026;-86
2022/07/12 12:46:06;;;;;;;5.03;0.75;;;37.40;47.70;;;;;;4848802;29;20463;-86
2022/07/12 12:48:33;;;;;;;3.38;0.70;;;37.60;48.00;;;;;;4844922;29;20106;-86
2022/07/12 12:51:10;;;;;;;1.33;0.47;;;37.80;48.30;;;;;;4851988;29;20045;-86
2022/07/12 12:53:38;;;;;;;4.85;0.63;;;38.00;48.20;;;;;;4854707;29;20471;-86
2022/07/12 12:56:06;;;;;;;1.33;0.50;;;38.10;47.30;;;;;;4853126;29;20281;-86
2022/07/12 12:58:32;;;;;;;3.13;0.60;;;38.20;47.10;;;;;;4855609;29;20025;-86
2022/07/12 13:00:58;;;;;;;1.65;0.73;;;38.30;48.80;;;;;;4855679;29;20034;-86